Time;durP1;ratioP1;P1;durP2;ratioP2;P2;SDS_P1;SDS_P2;PMS_P1;PMS_P2;Temp;Humidity;BMP_temperature;BMP_pressure;BME280_temperature;BME280_humidity;BME280_pressure;Samples;Min_cycle;Max_cycle;Signal;HPM_P1;HPM_P2
2023/07/27 00:02:10;;;;;;;4.90;4.37;;;;;;;;;;5074286;28;20192;-54
2023/07/27 00:04:36;;;;;;;6.30;4.77;;;;;;;;;;5075440;28;20408;-54
2023/07/27 00:07:03;;;;;;;4.50;4.10;;;;;;;;;;5075660;28;20249;-54
2023/07/27 00:09:30;;;;;;;5.10;4.10;;;;;;;;;;5075492;28;20195;-54
2023/07/27 00:11:56;;;;;;;4.00;3.60;;;;;;;;;;5075082;28;20235;-54
2023/07/27 00:14:22;;;;;;;4.83;4.27;;;;;;;;;;5075521;28;20191;-54
2023/07/27 00:16:48;;;;;;;6.47;4.30;;;;;;;;;;5075227;28;20393;-54
2023/07/27 00:19:14;;;;;;;4.53;4.13;;;;;;;;;;5073210;28;20286;-54
2023/07/27 00:21:40;;;;;;;5.93;4.87;;;;;;;;;;5073680;28;20741;-53
2023/07/27 00:24:07;;;;;;;6.47;5.07;;;;;;;;;;5075169;28;20290;-53
2023/07/27 00:26:33;;;;;;;5.33;4.70;;;;;;;;;;5075242;28;20626;-53
2023/07/27 00:28:59;;;;;;;8.20;5.50;;;;;;;;;;5075061;28;20271;-54
2023/07/27 00:31:25;;;;;;;5.53;4.87;;;;;;;;;;5075286;28;20219;-54
2023/07/27 00:33:51;;;;;;;6.93;5.23;;;;;;;;;;5074979;28;20714;-54
2023/07/27 00:36:17;;;;;;;5.70;5.10;;;;;;;;;;5075070;28;20207;-54
2023/07/27 00:38:43;;;;;;;5.43;4.87;;;;;;;;;;5074916;28;20203;-54
2023/07/27 00:41:11;;;;;;;5.67;4.53;;;;;;;;;;5075113;28;20252;-54
2023/07/27 00:43:37;;;;;;;5.03;4.33;;;;;;;;;;5074700;28;20243;-54
2023/07/27 00:46:03;;;;;;;5.13;4.40;;;;;;;;;;5074868;28;20249;-55
2023/07/27 00:48:30;;;;;;;7.60;4.73;;;;;;;;;;5074799;28;20198;-54
2023/07/27 00:50:56;;;;;;;5.27;4.13;;;;;;;;;;5074818;28;20196;-54
2023/07/27 00:53:22;;;;;;;6.83;5.00;;;;;;;;;;5074889;28;20219;-54
2023/07/27 00:55:48;;;;;;;5.57;4.57;;;;;;;;;;5074588;28;20610;-54
2023/07/27 00:58:16;;;;;;;5.10;4.60;;;;;;;;;;5074452;28;20214;-54
2023/07/27 01:00:42;;;;;;;5.30;4.40;;;;;;;;;;5074548;28;20612;-54
2023/07/27 01:03:09;;;;;;;4.80;4.20;;;;;;;;;;5074717;28;20199;-54
2023/07/27 01:05:35;;;;;;;6.67;4.30;;;;;;;;;;5074355;28;20590;-54
2023/07/27 01:08:01;;;;;;;5.10;4.50;;;;;;;;;;5073778;28;20250;-54
2023/07/27 01:10:32;;;;;;;5.00;4.27;;;;;;;;;;5074092;28;20569;-54
2023/07/27 01:13:02;;;;;;;5.43;4.70;;;;;;;;;;5073067;28;20235;-54
2023/07/27 01:15:30;;;;;;;4.60;4.07;;;;;;;;;;5074314;28;20214;-54
2023/07/27 01:17:59;;;;;;;7.17;5.23;;;;;;;;;;5074277;28;20235;-54
2023/07/27 01:20:29;;;;;;;5.37;4.80;;;;;;;;;;5074402;28;20210;-54
2023/07/27 01:23:12;;;;;;;6.07;5.00;;;;;;;;;;5074229;28;20195;-54
2023/07/27 01:25:46;;;;;;;6.80;5.00;;;;;;;;;;5074217;28;20600;-55
2023/07/27 01:28:18;;;;;;;5.30;4.80;;;;;;;;;;5074207;28;20278;-55
2023/07/27 01:30:50;;;;;;;5.40;4.90;;;;;;;;;;5074031;28;20196;-55
2023/07/27 01:33:18;;;;;;;6.87;5.40;;;;;;;;;;5074041;28;20228;-54
2023/07/27 01:35:48;;;;;;;7.30;5.03;;;;;;;;;;5073849;28;20195;-54
2023/07/27 01:38:14;;;;;;;5.70;5.07;;;;;;;;;;5074064;28;20195;-54
2023/07/27 01:40:41;;;;;;;6.33;5.57;;;;;;;;;;5073996;28;20196;-54
2023/07/27 01:43:07;;;;;;;6.83;6.20;;;;;;;;;;5073573;28;20288;-55
2023/07/27 01:45:33;;;;;;;6.50;5.50;;;;;;;;;;5073693;28;20729;-54
2023/07/27 01:48:01;;;;;;;5.90;5.30;;;;;;;;;;5073555;28;20299;-54
2023/07/27 01:50:28;;;;;;;7.27;5.90;;;;;;;;;;5073709;28;20239;-54
2023/07/27 01:52:55;;;;;;;6.37;5.77;;;;;;;;;;5073586;28;20219;-55
2023/07/27 01:55:22;;;;;;;5.80;5.20;;;;;;;;;;5073689;28;20207;-54
2023/07/27 01:57:49;;;;;;;6.10;5.60;;;;;;;;;;5073432;28;20222;-54
2023/07/27 02:00:16;;;;;;;6.80;6.10;;;;;;;;;;5073473;28;20289;-54
2023/07/27 02:02:42;;;;;;;5.87;5.27;;;;;;;;;;5073419;28;20290;-54
2023/07/27 02:05:10;;;;;;;7.63;6.50;;;;;;;;;;5073856;28;20249;-54
2023/07/27 02:07:37;;;;;;;6.67;5.90;;;;;;;;;;5073375;28;20272;-54
2023/07/27 02:10:03;;;;;;;6.43;5.67;;;;;;;;;;5073665;28;20200;-54
2023/07/27 02:12:32;;;;;;;6.63;6.00;;;;;;;;;;5073229;28;20216;-55
2023/07/27 02:15:02;;;;;;;7.33;6.23;;;;;;;;;;5073144;28;20206;-54
2023/07/27 02:17:31;;;;;;;9.17;7.20;;;;;;;;;;5073211;28;20253;-55
2023/07/27 02:19:58;;;;;;;7.33;6.43;;;;;;;;;;5073052;28;20245;-54
2023/07/27 02:22:26;;;;;;;7.13;6.13;;;;;;;;;;5073256;28;20604;-54
2023/07/27 02:24:53;;;;;;;8.40;6.50;;;;;;;;;;5072844;28;20200;-55
2023/07/27 02:27:19;;;;;;;7.23;6.53;;;;;;;;;;5073028;28;20209;-54
2023/07/27 02:29:46;;;;;;;8.33;6.97;;;;;;;;;;5073027;28;20270;-55
2023/07/27 02:32:12;;;;;;;7.97;7.17;;;;;;;;;;5072962;28;20223;-56
2023/07/27 02:34:38;;;;;;;7.03;6.33;;;;;;;;;;5072902;28;20199;-54
2023/07/27 02:37:04;;;;;;;8.07;6.67;;;;;;;;;;5072740;28;20200;-55
2023/07/27 02:39:32;;;;;;;7.47;6.63;;;;;;;;;;5071410;28;20204;-54
2023/07/27 02:41:58;;;;;;;6.77;6.00;;;;;;;;;;5072523;28;20227;-54
2023/07/27 02:44:24;;;;;;;8.30;6.27;;;;;;;;;;5072503;28;20721;-54
2023/07/27 02:46:50;;;;;;;6.97;5.80;;;;;;;;;;5072518;28;20207;-54
2023/07/27 02:49:16;;;;;;;5.60;5.10;;;;;;;;;;5072583;28;20200;-54
2023/07/27 02:51:42;;;;;;;6.53;5.70;;;;;;;;;;5072507;28;20223;-54
2023/07/27 02:54:08;;;;;;;7.07;5.47;;;;;;;;;;5072508;28;20228;-54
2023/07/27 02:56:36;;;;;;;6.63;5.77;;;;;;;;;;5070754;28;20256;-54
2023/07/27 02:59:02;;;;;;;7.40;5.97;;;;;;;;;;5072182;28;20216;-54
2023/07/27 03:01:28;;;;;;;6.67;5.97;;;;;;;;;;5072495;28;20280;-55
2023/07/27 03:03:54;;;;;;;7.93;5.63;;;;;;;;;;5072301;28;20269;-54
2023/07/27 03:06:20;;;;;;;8.00;6.30;;;;;;;;;;5072168;28;20712;-55
2023/07/27 03:08:46;;;;;;;7.20;6.50;;;;;;;;;;5072176;28;20208;-54
2023/07/27 03:11:12;;;;;;;6.03;5.43;;;;;;;;;;5072325;28;20204;-55
2023/07/27 03:13:40;;;;;;;7.43;6.03;;;;;;;;;;5072031;28;20232;-54
2023/07/27 03:16:06;;;;;;;6.47;5.57;;;;;;;;;;5072277;28;20333;-54
2023/07/27 03:18:32;;;;;;;6.07;5.50;;;;;;;;;;5070896;28;20195;-54
2023/07/27 03:20:58;;;;;;;5.67;4.97;;;;;;;;;;5071933;28;20191;-53
2023/07/27 03:23:24;;;;;;;6.27;5.67;;;;;;;;;;5072192;28;20187;-53
2023/07/27 03:25:50;;;;;;;5.80;5.30;;;;;;;;;;5071913;28;20215;-54
2023/07/27 03:28:16;;;;;;;6.97;5.40;;;;;;;;;;5072147;28;20199;-54
2023/07/27 03:30:43;;;;;;;6.37;5.23;;;;;;;;;;5072070;28;20530;-54
2023/07/27 03:33:09;;;;;;;5.97;5.37;;;;;;;;;;5071714;28;20755;-54
2023/07/27 03:35:35;;;;;;;7.03;6.23;;;;;;;;;;5071143;28;20203;-54
2023/07/27 03:38:02;;;;;;;6.50;5.63;;;;;;;;;;5070939;28;20195;-55
2023/07/27 03:40:28;;;;;;;7.30;5.23;;;;;;;;;;5071772;28;20200;-54
2023/07/27 03:42:54;;;;;;;6.27;5.30;;;;;;;;;;5071531;28;20227;-54
2023/07/27 03:45:20;;;;;;;5.87;5.17;;;;;;;;;;5071533;28;20199;-54
2023/07/27 03:47:47;;;;;;;6.23;5.63;;;;;;;;;;5071337;28;20737;-54
2023/07/27 03:50:13;;;;;;;5.90;5.20;;;;;;;;;;5071697;28;20199;-55
2023/07/27 03:52:40;;;;;;;6.83;5.90;;;;;;;;;;5071659;28;20231;-55
2023/07/27 03:55:06;;;;;;;5.83;5.23;;;;;;;;;;5071710;28;20195;-55
2023/07/27 03:57:32;;;;;;;7.03;4.97;;;;;;;;;;5071776;28;20210;-58
2023/07/27 03:59:59;;;;;;;7.07;5.77;;;;;;;;;;5071452;28;20203;-55
2023/07/27 04:02:25;;;;;;;7.37;5.63;;;;;;;;;;5071800;28;20658;-55
2023/07/27 04:04:53;;;;;;;6.67;5.50;;;;;;;;;;5071520;28;20212;-55
2023/07/27 04:07:19;;;;;;;7.93;5.90;;;;;;;;;;5071601;28;20246;-54
2023/07/27 04:09:45;;;;;;;8.57;6.47;;;;;;;;;;5071488;28;20321;-55
2023/07/27 04:12:11;;;;;;;9.57;6.17;;;;;;;;;;5071261;28;20697;-55
2023/07/27 04:14:38;;;;;;;6.67;6.03;;;;;;;;;;5071457;28;20202;-56
2023/07/27 04:17:04;;;;;;;6.83;6.20;;;;;;;;;;5071240;28;20275;-55
2023/07/27 04:19:30;;;;;;;7.13;5.30;;;;;;;;;;5071532;28;20222;-55
2023/07/27 04:21:57;;;;;;;7.27;6.13;;;;;;;;;;5071347;28;20642;-55
2023/07/27 04:24:23;;;;;;;8.17;6.30;;;;;;;;;;5071547;28;20203;-55
2023/07/27 04:26:49;;;;;;;5.97;5.37;;;;;;;;;;5071183;28;20287;-55
2023/07/27 04:29:15;;;;;;;5.90;5.20;;;;;;;;;;5071387;28;20220;-54
2023/07/27 04:31:41;;;;;;;6.33;5.73;;;;;;;;;;5071326;28;20207;-54
2023/07/27 04:34:07;;;;;;;6.90;5.77;;;;;;;;;;5071203;28;20281;-54
2023/07/27 04:36:33;;;;;;;7.13;5.50;;;;;;;;;;5071370;28;20199;-55
2023/07/27 04:39:01;;;;;;;5.83;4.97;;;;;;;;;;5071200;28;20279;-54
2023/07/27 04:41:27;;;;;;;6.00;5.33;;;;;;;;;;5071537;28;20257;-56
2023/07/27 04:43:53;;;;;;;6.73;4.67;;;;;;;;;;5071119;28;20232;-54
2023/07/27 04:46:19;;;;;;;5.73;5.13;;;;;;;;;;5071548;28;20210;-55
2023/07/27 04:48:45;;;;;;;6.40;4.90;;;;;;;;;;5074169;28;20199;-54
2023/07/27 04:51:11;;;;;;;9.00;5.87;;;;;;;;;;5075176;28;20217;-55
2023/07/27 04:53:37;;;;;;;6.27;5.40;;;;;;;;;;5074973;28;20280;-54
2023/07/27 04:56:04;;;;;;;6.10;5.33;;;;;;;;;;5074729;28;20558;-55
2023/07/27 04:58:30;;;;;;;7.93;6.20;;;;;;;;;;5074677;28;20223;-54
2023/07/27 05:00:57;;;;;;;7.07;5.20;;;;;;;;;;5074688;28;20192;-55
2023/07/27 05:03:23;;;;;;;6.20;5.30;;;;;;;;;;5074776;28;20195;-55
2023/07/27 05:05:52;;;;;;;7.33;5.50;;;;;;;;;;5074428;28;20207;-54
2023/07/27 05:08:18;;;;;;;6.53;4.87;;;;;;;;;;5074454;28;20685;-54
2023/07/27 05:10:44;;;;;;;6.03;5.40;;;;;;;;;;5074488;28;20200;-54
2023/07/27 05:13:11;;;;;;;7.17;5.50;;;;;;;;;;5074397;28;20289;-54
2023/07/27 05:15:39;;;;;;;7.03;6.10;;;;;;;;;;5074528;28;20304;-54
2023/07/27 05:18:05;;;;;;;6.90;6.00;;;;;;;;;;5074270;28;20195;-56
2023/07/27 05:20:32;;;;;;;7.10;6.40;;;;;;;;;;5074258;28;20654;-55
2023/07/27 05:22:58;;;;;;;9.63;6.67;;;;;;;;;;5074005;28;20235;-55
2023/07/27 05:25:24;;;;;;;7.10;6.40;;;;;;;;;;5074148;28;20225;-55
2023/07/27 05:27:50;;;;;;;7.70;6.20;;;;;;;;;;5074093;28;20202;-55
2023/07/27 05:30:18;;;;;;;6.87;6.17;;;;;;;;;;5074120;28;20192;-55
2023/07/27 05:32:44;;;;;;;6.87;5.67;;;;;;;;;;5073872;28;20718;-55
2023/07/27 05:35:10;;;;;;;7.30;5.80;;;;;;;;;;5074063;28;20249;-55
2023/07/27 05:37:36;;;;;;;8.70;6.13;;;;;;;;;;5073986;28;20199;-55
2023/07/27 05:40:04;;;;;;;7.83;6.17;;;;;;;;;;5073906;28;20222;-56
2023/07/27 05:42:30;;;;;;;8.97;7.10;;;;;;;;;;5073842;28;20196;-55
2023/07/27 05:44:56;;;;;;;6.40;5.80;;;;;;;;;;5073659;28;20331;-56
2023/07/27 05:47:23;;;;;;;7.40;6.60;;;;;;;;;;5073738;28;20734;-55
2023/07/27 05:49:51;;;;;;;7.93;6.93;;;;;;;;;;5073757;28;20208;-55
2023/07/27 05:52:17;;;;;;;8.20;6.77;;;;;;;;;;5073725;28;20199;-55
2023/07/27 05:54:43;;;;;;;8.40;6.17;;;;;;;;;;5073848;28;20199;-55
2023/07/27 05:57:09;;;;;;;6.70;6.10;;;;;;;;;;5073605;28;20253;-56
2023/07/27 05:59:35;;;;;;;9.90;6.67;;;;;;;;;;5073173;28;20199;-54
2023/07/27 06:02:01;;;;;;;8.03;5.50;;;;;;;;;;5073518;28;20662;-55
2023/07/27 06:04:28;;;;;;;8.03;6.00;;;;;;;;;;5073503;28;20187;-55
2023/07/27 06:06:54;;;;;;;8.07;6.40;;;;;;;;;;5073528;28;20677;-55
2023/07/27 06:09:21;;;;;;;7.53;6.53;;;;;;;;;;5073455;28;20670;-55
2023/07/27 06:11:47;;;;;;;8.40;6.37;;;;;;;;;;5073111;28;20286;-55
2023/07/27 06:14:13;;;;;;;6.83;6.20;;;;;;;;;;5073243;28;20284;-55
2023/07/27 06:16:39;;;;;;;6.87;6.23;;;;;;;;;;5073345;28;20234;-55
2023/07/27 06:19:05;;;;;;;7.03;6.37;;;;;;;;;;5073084;28;20219;-54
2023/07/27 06:21:32;;;;;;;7.83;6.00;;;;;;;;;;5073117;28;20387;-55
2023/07/27 06:23:58;;;;;;;11.00;6.37;;;;;;;;;;5073022;28;20214;-55
2023/07/27 06:26:24;;;;;;;8.37;5.50;;;;;;;;;;5073203;28;20191;-55
2023/07/27 06:28:50;;;;;;;6.47;5.77;;;;;;;;;;5073032;28;20195;-55
2023/07/27 06:31:16;;;;;;;7.03;6.37;;;;;;;;;;5073051;28;20203;-55
2023/07/27 06:33:42;;;;;;;6.53;5.93;;;;;;;;;;5072955;28;20223;-55
2023/07/27 06:36:11;;;;;;;7.37;6.53;;;;;;;;;;5073040;28;20200;-55
2023/07/27 06:38:39;;;;;;;6.70;6.00;;;;;;;;;;5072811;28;20207;-55
2023/07/27 06:41:05;;;;;;;5.90;5.30;;;;;;;;;;5072691;28;20208;-55
2023/07/27 06:43:31;;;;;;;6.90;6.20;;;;;;;;;;5072564;28;20683;-55
2023/07/27 06:45:57;;;;;;;7.17;6.33;;;;;;;;;;5072543;28;20558;-55
2023/07/27 06:48:23;;;;;;;6.10;5.50;;;;;;;;;;5072456;28;20540;-56
2023/07/27 06:50:49;;;;;;;6.60;5.83;;;;;;;;;;5072610;28;20287;-56
2023/07/27 06:53:15;;;;;;;6.10;5.50;;;;;;;;;;5072622;28;20659;-56
2023/07/27 06:55:42;;;;;;;6.10;5.50;;;;;;;;;;5072663;28;20689;-56
2023/07/27 06:58:08;;;;;;;5.67;4.93;;;;;;;;;;5072465;28;20269;-55
2023/07/27 07:00:34;;;;;;;6.23;5.60;;;;;;;;;;5072410;28;20233;-54
2023/07/27 07:03:00;;;;;;;7.03;5.90;;;;;;;;;;5072268;28;20192;-54
2023/07/27 07:05:26;;;;;;;8.53;6.03;;;;;;;;;;5072367;28;20319;-54
2023/07/27 07:07:52;;;;;;;6.80;5.10;;;;;;;;;;5072210;28;20199;-54
2023/07/27 07:10:18;;;;;;;6.93;5.77;;;;;;;;;;5071897;28;20295;-54
2023/07/27 07:12:46;;;;;;;6.37;5.77;;;;;;;;;;5071592;28;20671;-54
2023/07/27 07:15:12;;;;;;;7.13;5.33;;;;;;;;;;5072083;28;20612;-53
2023/07/27 07:17:38;;;;;;;5.73;5.13;;;;;;;;;;5072260;28;20719;-53
2023/07/27 07:20:08;;;;;;;6.43;4.93;;;;;;;;;;5072199;28;20249;-54
2023/07/27 07:22:34;;;;;;;6.53;5.50;;;;;;;;;;5071858;28;20565;-54
2023/07/27 07:25:00;;;;;;;5.70;5.10;;;;;;;;;;5072014;28;20195;-54
2023/07/27 07:27:26;;;;;;;5.63;5.13;;;;;;;;;;5072052;28;20206;-54
2023/07/27 07:29:53;;;;;;;5.83;5.30;;;;;;;;;;5071973;28;20219;-54
2023/07/27 07:32:19;;;;;;;5.57;5.07;;;;;;;;;;5070083;28;20282;-54
2023/07/27 07:34:45;;;;;;;5.67;5.10;;;;;;;;;;5071811;28;20619;-53
2023/07/27 07:37:11;;;;;;;5.17;4.67;;;;;;;;;;5071913;28;20294;-54
2023/07/27 07:39:37;;;;;;;6.03;5.43;;;;;;;;;;5071906;28;20286;-55
2023/07/27 07:42:04;;;;;;;7.27;5.07;;;;;;;;;;5071584;28;20195;-56
2023/07/27 07:44:30;;;;;;;6.07;4.87;;;;;;;;;;5071546;28;20769;-54
2023/07/27 07:46:57;;;;;;;6.30;4.73;;;;;;;;;;5071735;28;20298;-54
2023/07/27 07:49:25;;;;;;;6.37;5.77;;;;;;;;;;5071799;28;20290;-54
2023/07/27 07:51:51;;;;;;;6.00;5.40;;;;;;;;;;5071670;28;20200;-55
2023/07/27 07:54:17;;;;;;;6.40;5.50;;;;;;;;;;5071757;28;20590;-55
2023/07/27 07:56:44;;;;;;;5.77;5.13;;;;;;;;;;5071728;28;20249;-55
2023/07/27 07:59:10;;;;;;;6.27;5.57;;;;;;;;;;5069588;28;20199;-55
2023/07/27 08:01:36;;;;;;;6.30;5.70;;;;;;;;;;5071315;28;20188;-56
2023/07/27 08:04:04;;;;;;;9.13;5.73;;;;;;;;;;5071286;28;20199;-56
2023/07/27 08:06:30;;;;;;;7.43;5.60;;;;;;;;;;5071207;28;20228;-56
2023/07/27 08:08:56;;;;;;;5.80;5.20;;;;;;;;;;5071283;28;20268;-56
2023/07/27 08:11:22;;;;;;;6.90;5.13;;;;;;;;;;5071235;28;20673;-56
2023/07/27 08:13:48;;;;;;;5.97;5.07;;;;;;;;;;5071014;28;20234;-56
2023/07/27 08:16:14;;;;;;;5.90;5.03;;;;;;;;;;5071132;28;20210;-56
2023/07/27 08:18:40;;;;;;;9.10;4.70;;;;;;;;;;5071233;28;20187;-56
2023/07/27 08:21:08;;;;;;;7.47;5.47;;;;;;;;;;5071483;28;20203;-56
2023/07/27 08:23:35;;;;;;;4.93;4.43;;;;;;;;;;5074541;28;20214;-57
2023/07/27 08:26:01;;;;;;;6.90;4.90;;;;;;;;;;5075124;28;20200;-56
2023/07/27 08:28:28;;;;;;;6.20;5.07;;;;;;;;;;5075328;28;20606;-59
2023/07/27 08:30:54;;;;;;;7.27;4.90;;;;;;;;;;5075279;28;20221;-56
2023/07/27 08:33:20;;;;;;;6.00;4.87;;;;;;;;;;5074854;28;20245;-57
2023/07/27 08:35:46;;;;;;;6.47;4.90;;;;;;;;;;5074941;28;20277;-56
2023/07/27 08:38:14;;;;;;;6.80;5.30;;;;;;;;;;5075190;28;20298;-56
2023/07/27 08:40:40;;;;;;;6.73;5.20;;;;;;;;;;5075241;28;20196;-56
2023/07/27 08:43:08;;;;;;;6.70;5.10;;;;;;;;;;5074619;28;20227;-56
2023/07/27 08:45:34;;;;;;;4.60;4.20;;;;;;;;;;5075271;28;20214;-56
2023/07/27 08:48:00;;;;;;;5.67;4.93;;;;;;;;;;5074687;28;20200;-56
2023/07/27 08:50:26;;;;;;;5.10;4.17;;;;;;;;;;5074766;28;20541;-55
2023/07/27 08:52:52;;;;;;;5.10;4.00;;;;;;;;;;5074809;28;20235;-56
2023/07/27 08:55:21;;;;;;;4.43;4.03;;;;;;;;;;5074799;28;20206;-55
2023/07/27 08:57:47;;;;;;;5.43;4.83;;;;;;;;;;5074480;28;20701;-56
2023/07/27 09:00:13;;;;;;;5.87;4.20;;;;;;;;;;5074797;28;20195;-57
2023/07/27 09:02:39;;;;;;;5.40;4.10;;;;;;;;;;5074722;28;20184;-56
2023/07/27 09:05:06;;;;;;;5.80;4.17;;;;;;;;;;5074453;28;20602;-56
2023/07/27 09:07:32;;;;;;;4.83;3.60;;;;;;;;;;5074664;28;20203;-57
2023/07/27 09:09:58;;;;;;;4.37;3.97;;;;;;;;;;5074652;28;20199;-57
2023/07/27 09:12:26;;;;;;;4.70;4.20;;;;;;;;;;5074653;28;20199;-56
2023/07/27 09:14:52;;;;;;;5.67;3.67;;;;;;;;;;5074619;28;20623;-57
2023/07/27 09:17:19;;;;;;;4.97;4.40;;;;;;;;;;5074651;28;20236;-56
2023/07/27 09:19:45;;;;;;;4.60;3.83;;;;;;;;;;5074471;28;20253;-57
2023/07/27 09:22:11;;;;;;;4.10;3.70;;;;;;;;;;5072962;28;20205;-57
2023/07/27 09:24:38;;;;;;;4.63;3.90;;;;;;;;;;5074617;28;20211;-57
2023/07/27 09:27:09;;;;;;;4.60;3.70;;;;;;;;;;5074322;28;20282;-57
2023/07/27 09:29:36;;;;;;;5.27;3.87;;;;;;;;;;5074463;28;20253;-57
2023/07/27 09:32:05;;;;;;;4.23;3.83;;;;;;;;;;5074171;28;20680;-57
2023/07/27 09:34:32;;;;;;;5.00;3.97;;;;;;;;;;5073298;28;20231;-57
2023/07/27 09:37:01;;;;;;;3.43;3.10;;;;;;;;;;5074146;28;20204;-57
2023/07/27 09:39:28;;;;;;;6.20;3.83;;;;;;;;;;5074064;28;20238;-57
2023/07/27 09:42:09;;;;;;;4.77;4.27;;;;;;;;;;5073877;28;20201;-57
2023/07/27 09:44:46;;;;;;;5.30;3.77;;;;;;;;;;5073488;28;20267;-56
2023/07/27 09:47:18;;;;;;;5.37;4.10;;;;;;;;;;5073388;28;20531;-56
2023/07/27 09:49:44;;;;;;;6.57;4.77;;;;;;;;;;5073470;28;20196;-55
2023/07/27 09:52:10;;;;;;;5.30;4.80;;;;;;;;;;5073622;28;20203;-55
2023/07/27 09:54:36;;;;;;;6.40;5.10;;;;;;;;;;5073371;28;20227;-55
2023/07/27 09:57:02;;;;;;;5.93;4.80;;;;;;;;;;5073284;28;20222;-56
2023/07/27 09:59:29;;;;;;;6.40;5.00;;;;;;;;;;5073387;28;20302;-55
2023/07/27 10:01:56;;;;;;;5.77;5.07;;;;;;;;;;5073596;28;20195;-55
2023/07/27 10:04:22;;;;;;;6.53;5.90;;;;;;;;;;5073438;28;20242;-55
2023/07/27 10:06:48;;;;;;;7.30;5.47;;;;;;;;;;5073087;28;20238;-55
2023/07/27 10:09:18;;;;;;;5.90;5.30;;;;;;;;;;5073255;28;20835;-55
2023/07/27 10:11:59;;;;;;;7.40;5.87;;;;;;;;;;5072870;28;20208;-55
2023/07/27 10:14:26;;;;;;;5.70;5.20;;;;;;;;;;5073325;28;20223;-56
2023/07/27 10:16:58;;;;;;;5.90;5.30;;;;;;;;;;5072897;28;20234;-56
2023/07/27 10:19:24;;;;;;;6.97;5.23;;;;;;;;;;5073130;28;20204;-56
2023/07/27 10:21:51;;;;;;;4.80;4.40;;;;;;;;;;5072877;28;20195;-56
2023/07/27 10:24:21;;;;;;;4.87;4.47;;;;;;;;;;5072779;28;20200;-55
2023/07/27 10:26:49;;;;;;;5.00;4.60;;;;;;;;;;5072652;28;20200;-56
2023/07/27 10:29:16;;;;;;;4.60;4.20;;;;;;;;;;5072580;28;20203;-56
2023/07/27 10:31:43;;;;;;;4.80;4.10;;;;;;;;;;5072896;28;20200;-56
2023/07/27 10:34:15;;;;;;;4.53;4.13;;;;;;;;;;5072537;28;20235;-56
2023/07/27 10:36:57;;;;;;;5.67;4.33;;;;;;;;;;5072760;28;20203;-56
2023/07/27 10:39:26;;;;;;;4.43;4.03;;;;;;;;;;5072788;28;20198;-56
2023/07/27 10:41:58;;;;;;;5.03;4.53;;;;;;;;;;5072461;28;20261;-56
2023/07/27 10:44:25;;;;;;;4.37;3.97;;;;;;;;;;5072353;28;20259;-56
2023/07/27 10:46:54;;;;;;;4.90;4.30;;;;;;;;;;5072389;28;20245;-56
2023/07/27 10:49:22;;;;;;;5.07;4.20;;;;;;;;;;5072385;28;20200;-56
2023/07/27 10:51:49;;;;;;;5.00;4.50;;;;;;;;;;5072530;28;20282;-56
2023/07/27 10:54:15;;;;;;;4.60;4.10;;;;;;;;;;5072768;28;20242;-55
2023/07/27 10:56:42;;;;;;;5.20;4.10;;;;;;;;;;5072568;28;20626;-55
2023/07/27 10:59:11;;;;;;;5.17;4.67;;;;;;;;;;5066350;28;20606;-56
2023/07/27 11:01:39;;;;;;;4.70;4.30;;;;;;;;;;5070816;28;20199;-58
2023/07/27 11:04:10;;;;;;;5.63;4.47;;;;;;;;;;5071846;28;20191;-64
2023/07/27 11:06:45;;;;;;;4.90;4.40;;;;;;;;;;5072134;28;20207;-58
2023/07/27 11:09:11;;;;;;;5.27;4.30;;;;;;;;;;5072186;28;20210;-58
2023/07/27 11:11:38;;;;;;;5.33;4.07;;;;;;;;;;5072039;28;20216;-62
2023/07/27 11:14:05;;;;;;;4.50;4.10;;;;;;;;;;5071691;28;20258;-59
2023/07/27 11:16:32;;;;;;;5.43;4.90;;;;;;;;;;5071460;28;20723;-55
2023/07/27 11:19:00;;;;;;;5.03;4.03;;;;;;;;;;5071953;28;20225;-55
2023/07/27 11:21:26;;;;;;;5.33;4.20;;;;;;;;;;5071929;28;20222;-55
2023/07/27 11:23:53;;;;;;;4.40;4.10;;;;;;;;;;5071875;28;20226;-54
2023/07/27 11:26:20;;;;;;;4.57;4.13;;;;;;;;;;5071506;28;20223;-55
2023/07/27 11:28:46;;;;;;;4.07;3.67;;;;;;;;;;5071434;28;20651;-56
2023/07/27 11:31:18;;;;;;;5.10;3.70;;;;;;;;;;5071546;28;20286;-58
2023/07/27 11:33:44;;;;;;;4.77;4.10;;;;;;;;;;5071719;28;20284;-57
2023/07/27 11:36:11;;;;;;;5.83;3.60;;;;;;;;;;5071571;28;20195;-56
2023/07/27 11:38:37;;;;;;;3.90;3.60;;;;;;;;;;5071778;28;20203;-55
2023/07/27 11:41:06;;;;;;;4.00;3.67;;;;;;;;;;5071036;28;20199;-54
2023/07/27 11:43:32;;;;;;;4.23;3.87;;;;;;;;;;5071345;28;20231;-54
2023/07/27 11:45:58;;;;;;;4.47;4.03;;;;;;;;;;5071563;28;20194;-55
2023/07/27 11:48:28;;;;;;;5.83;4.20;;;;;;;;;;5071384;28;20207;-54
2023/07/27 11:50:55;;;;;;;5.10;3.90;;;;;;;;;;5071402;28;20654;-54
2023/07/27 11:53:24;;;;;;;3.70;3.40;;;;;;;;;;5070972;28;20227;-52
2023/07/27 11:55:50;;;;;;;3.70;3.40;;;;;;;;;;5071322;28;20202;-52
2023/07/27 11:58:17;;;;;;;3.90;3.50;;;;;;;;;;5067525;28;20195;-53
2023/07/27 12:00:48;;;;;;;4.17;3.73;;;;;;;;;;5071575;28;20206;-53
2023/07/27 12:03:14;;;;;;;3.80;3.50;;;;;;;;;;5071370;28;20271;-53
2023/07/27 12:05:40;;;;;;;3.50;3.20;;;;;;;;;;5071223;28;20260;-55
2023/07/27 12:08:06;;;;;;;4.73;3.90;;;;;;;;;;5071327;28;20195;-54
2023/07/27 12:10:32;;;;;;;3.77;3.40;;;;;;;;;;5071360;28;20191;-55
2023/07/27 12:13:01;;;;;;;3.70;3.40;;;;;;;;;;5071305;28;20310;-56
2023/07/27 12:15:29;;;;;;;3.70;3.37;;;;;;;;;;5071656;28;20657;-57
2023/07/27 12:17:56;;;;;;;4.47;4.03;;;;;;;;;;5071635;28;20286;-55
2023/07/27 12:20:22;;;;;;;3.93;3.50;;;;;;;;;;5071678;28;20195;-54
2023/07/27 12:22:48;;;;;;;3.70;3.10;;;;;;;;;;5071696;28;20290;-53
2023/07/27 12:25:14;;;;;;;3.43;3.23;;;;;;;;;;5071310;28;20599;-52
2023/07/27 12:27:40;;;;;;;3.20;3.00;;;;;;;;;;5071847;28;20283;-53
2023/07/27 12:30:07;;;;;;;3.43;3.13;;;;;;;;;;5071649;28;20314;-53
2023/07/27 12:32:35;;;;;;;2.77;2.57;;;;;;;;;;5071740;28;20559;-52
2023/07/27 12:35:01;;;;;;;3.07;2.80;;;;;;;;;;5071295;28;20681;-53
2023/07/27 12:37:27;;;;;;;2.60;2.40;;;;;;;;;;5071588;28;20207;-53
2023/07/27 12:39:53;;;;;;;2.80;2.60;;;;;;;;;;5071684;28;20195;-53
2023/07/27 12:42:19;;;;;;;2.60;2.20;;;;;;;;;;5071267;28;20222;-53
2023/07/27 12:44:45;;;;;;;3.37;2.43;;;;;;;;;;5071021;28;20236;-54
2023/07/27 12:47:11;;;;;;;2.30;2.10;;;;;;;;;;5071104;28;20198;-54
2023/07/27 12:49:38;;;;;;;2.43;2.17;;;;;;;;;;5071553;28;20196;-53
2023/07/27 12:52:05;;;;;;;2.50;2.30;;;;;;;;;;5071166;28;20568;-53
2023/07/27 12:54:31;;;;;;;2.03;1.83;;;;;;;;;;5070917;28;20756;-53
2023/07/27 12:56:57;;;;;;;2.50;1.93;;;;;;;;;;5071150;28;20666;-54
2023/07/27 12:59:25;;;;;;;2.07;1.87;;;;;;;;;;5071337;28;20257;-54
2023/07/27 13:01:51;;;;;;;3.50;1.90;;;;;;;;;;5071042;28;20222;-54
2023/07/27 13:04:17;;;;;;;1.70;1.60;;;;;;;;;;5071030;28;20654;-53
2023/07/27 13:06:45;;;;;;;1.93;1.70;;;;;;;;;;5071101;28;20219;-53
2023/07/27 13:09:11;;;;;;;4.20;1.70;;;;;;;;;;5071821;28;20208;-53
2023/07/27 13:11:37;;;;;;;3.73;1.90;;;;;;;;;;5074612;28;20630;-53
2023/07/27 13:14:03;;;;;;;1.97;1.87;;;;;;;;;;5074520;28;20300;-52
2023/07/27 13:16:29;;;;;;;1.97;1.80;;;;;;;;;;5074456;28;20253;-53
2023/07/27 13:18:55;;;;;;;2.27;1.70;;;;;;;;;;5074666;28;20204;-53
2023/07/27 13:21:22;;;;;;;2.07;1.80;;;;;;;;;;5074382;28;20200;-53
2023/07/27 13:23:49;;;;;;;1.97;1.87;;;;;;;;;;5072763;28;20184;-53
2023/07/27 13:26:15;;;;;;;2.03;1.70;;;;;;;;;;5074419;28;20665;-53
2023/07/27 13:28:41;;;;;;;2.80;1.77;;;;;;;;;;5074641;28;20303;-53
2023/07/27 13:31:07;;;;;;;2.10;1.90;;;;;;;;;;5074318;28;20200;-54
2023/07/27 13:33:33;;;;;;;2.03;1.80;;;;;;;;;;5074254;28;20230;-53
2023/07/27 13:35:59;;;;;;;1.87;1.77;;;;;;;;;;5074055;28;20195;-53
2023/07/27 13:38:26;;;;;;;2.03;1.77;;;;;;;;;;5074206;28;20202;-52
2023/07/27 13:40:53;;;;;;;2.23;2.00;;;;;;;;;;5073855;28;20666;-52
2023/07/27 13:43:19;;;;;;;2.13;1.97;;;;;;;;;;5073595;28;20575;-53
2023/07/27 13:45:45;;;;;;;2.80;2.00;;;;;;;;;;5074009;28;20253;-52
2023/07/27 13:48:11;;;;;;;2.87;2.00;;;;;;;;;;5073876;28;20196;-54
2023/07/27 13:50:37;;;;;;;2.43;2.20;;;;;;;;;;5074228;28;20200;-53
2023/07/27 13:53:04;;;;;;;2.03;1.63;;;;;;;;;;5073619;28;20538;-53
2023/07/27 13:55:30;;;;;;;2.33;2.13;;;;;;;;;;5073621;28;20195;-52
2023/07/27 13:57:57;;;;;;;2.17;2.00;;;;;;;;;;5073799;28;20215;-53
2023/07/27 14:00:23;;;;;;;1.90;1.80;;;;;;;;;;5073770;28;20206;-54
2023/07/27 14:02:49;;;;;;;2.30;2.20;;;;;;;;;;5073707;28;20252;-52
2023/07/27 14:05:17;;;;;;;2.33;2.17;;;;;;;;;;5073085;28;20219;-53
2023/07/27 14:07:43;;;;;;;2.20;2.00;;;;;;;;;;5073488;28;20195;-53
2023/07/27 14:10:09;;;;;;;5.23;2.17;;;;;;;;;;5073386;28;20190;-53
2023/07/27 14:34:37;;;;;;;1.80;1.70;;;;;;;;;;5148703;27;20516;-51
2023/07/27 14:37:03;;;;;;;3.37;2.00;;;;;;;;;;5149062;27;20233;-51
2023/07/27 14:39:30;;;;;;;2.53;1.90;;;;;;;;;;5149302;27;20198;-54
2023/07/27 14:41:55;;;;;;;4.47;2.33;;;;;;;;;;5149116;27;20189;-54
2023/07/27 14:44:22;;;;;;;2.17;2.03;;;;;;;;;;5149090;27;20730;-54
2023/07/27 14:46:48;;;;;;;2.50;2.30;;;;;;;;;;5148864;27;20222;-54
2023/07/27 14:49:14;;;;;;;2.03;1.90;;;;;;;;;;5149393;27;20197;-56
2023/07/27 14:51:41;;;;;;;2.67;2.47;;;;;;;;;;5148597;27;20202;-53
2023/07/27 14:54:07;;;;;;;3.43;2.10;;;;;;;;;;5148699;27;20194;-53
2023/07/27 14:56:33;;;;;;;2.13;2.00;;;;;;;;;;5148632;27;20193;-53
2023/07/27 14:58:59;;;;;;;2.23;2.03;;;;;;;;;;5146648;27;20204;-53
2023/07/27 15:01:25;;;;;;;2.33;1.87;;;;;;;;;;5148156;27;20563;-53
2023/07/27 15:03:51;;;;;;;2.53;2.33;;;;;;;;;;5147515;27;20226;-53